Norfolk, Massachusetts
Current Conditions -  °F | °C
As of 6:38 PM on Wednesday 22 Oct 2014 (Local Time) from KOWD Reporting Station
Light Rain Light Rain  
Wind Chill: 52°   Ceiling: 800
Heat Index: 52°   Visibility: 2.5mi
Dew Point: 50°   Wind: 18mph
Humidity: 93%   Direction: 30°NNE
Pressure: 29.85"   Gusts: 30mph
Location:  42.12°N, 71.32°W
Report Text: KOWD 222238Z 03016G26KT 2 1/2SM -RA BR OVC008 11/10 A2985 RMK AO2 PK WND 03029/2222 CIG 006V012 P0004 T01110100
Loading
Personal Weather Stations






























Interactive Weather Map New forecast layout! Learn more

10-Day Weather Forecast

Advertisements
Track Severe Weather on mobile